createdAt,value
2023-09-27T07:27:53.395Z,99.90
2023-09-27T07:30:25.325Z,99.90
2023-09-27T07:32:54.924Z,69.10
2023-09-27T07:35:25.185Z,49.70
2023-09-27T07:37:53.363Z,40.40
2023-09-27T07:40:21.548Z,53.00
2023-09-27T07:42:50.000Z,79.40
2023-09-27T07:45:22.864Z,99.90
2023-09-27T07:47:53.978Z,99.90
2023-09-27T07:50:23.509Z,99.90
2023-09-27T07:52:52.782Z,99.90
2023-09-27T07:55:22.434Z,99.90
2023-09-27T07:57:53.886Z,99.90
2023-09-27T08:00:28.719Z,99.90
2023-09-27T08:05:28.673Z,99.90
2023-09-27T08:07:57.180Z,99.90
2023-09-27T08:10:25.778Z,99.90
2023-09-27T08:12:54.062Z,99.90
2023-09-27T08:15:21.358Z,99.90
2023-09-27T08:17:49.629Z,99.90
2023-09-27T08:20:20.248Z,99.90
2023-09-27T08:22:48.546Z,99.90
2023-09-27T08:25:17.211Z,99.90
2023-09-27T08:27:46.001Z,99.90
2023-09-27T08:30:15.188Z,99.90
2023-09-27T08:32:43.692Z,99.90
2023-09-27T08:35:12.540Z,99.90
2023-09-27T08:37:42.102Z,99.90
2023-09-27T08:40:14.486Z,99.90
2023-09-27T08:42:44.667Z,99.90
2023-09-27T08:45:15.367Z,99.90
2023-09-27T08:47:45.291Z,99.90
2023-09-27T08:50:15.413Z,99.90
2023-09-27T08:52:48.583Z,99.90
2023-09-27T08:55:18.053Z,99.90
2023-09-27T08:57:48.936Z,96.80
2023-09-27T09:00:20.746Z,99.90
2023-09-27T09:02:53.336Z,75.90
2023-09-27T09:05:23.238Z,99.90
2023-09-27T09:07:52.982Z,95.60
2023-09-27T09:10:23.688Z,98.50
2023-09-27T09:12:51.894Z,94.90
2023-09-27T09:15:31.294Z,63.80
2023-09-27T09:18:00.516Z,43.60
2023-09-27T09:20:33.792Z,57.90
2023-09-27T09:23:08.535Z,43.40
2023-09-27T09:25:44.842Z,34.60
2023-09-27T09:28:14.351Z,41.60
2023-09-27T09:30:47.275Z,27.10
2023-09-27T09:33:18.794Z,19.90
2023-09-27T09:35:47.274Z,24.50
2023-09-27T09:38:25.944Z,17.10
2023-09-27T09:40:55.225Z,8.90
2023-09-27T09:43:37.705Z,7.10
2023-09-27T09:46:09.400Z,11.10
2023-09-27T09:48:39.480Z,11.00
2023-09-27T09:51:09.243Z,6.10
2023-09-27T09:53:43.023Z,1.00
2023-09-27T09:58:52.164Z,1.00
2023-09-27T10:01:23.133Z,1.00
2023-09-27T10:03:54.139Z,1.00
2023-09-27T10:06:36.534Z,42.70
2023-09-27T10:09:15.742Z,74.90
2023-09-27T10:11:46.633Z,99.90
2023-09-27T10:14:18.004Z,99.90
2023-09-27T10:16:47.181Z,99.90
2023-09-27T10:19:29.076Z,99.90
2023-09-27T10:22:05.811Z,99.90
2023-09-27T10:24:43.426Z,99.90
2023-09-27T10:27:11.714Z,58.00
2023-09-27T10:29:58.018Z,45.20
2023-09-27T10:32:26.384Z,21.70
2023-09-27T10:34:55.027Z,38.10
2023-09-27T10:38:10.428Z,45.20
2023-09-27T10:40:47.579Z,54.00
2023-09-27T10:43:41.812Z,50.70
2023-09-27T10:46:10.348Z,53.10
2023-09-27T10:48:43.402Z,71.00
2023-09-27T10:51:12.059Z,71.80
2023-09-27T10:53:40.255Z,89.60
2023-09-27T10:56:09.978Z,45.50
2023-09-27T10:58:45.788Z,28.30
2023-09-27T11:01:14.100Z,20.00
2023-09-27T11:03:42.455Z,40.50
2023-09-27T11:06:11.891Z,37.10
2023-09-27T11:08:40.657Z,36.20
2023-09-27T11:11:10.962Z,45.60
2023-09-27T11:13:43.502Z,99.90
2023-09-27T11:16:15.040Z,99.90
2023-09-27T11:18:45.995Z,99.90
2023-09-27T11:21:15.453Z,99.90
2023-09-27T11:23:57.238Z,99.90
2023-09-27T11:26:28.019Z,99.90
2023-09-27T11:29:00.584Z,99.90
2023-09-27T11:31:29.381Z,99.90
2023-09-27T11:34:13.303Z,99.90
2023-09-27T11:36:42.565Z,99.90
2023-09-27T11:39:11.235Z,99.90
2023-09-27T11:41:40.720Z,99.90
2023-09-27T11:44:19.529Z,99.90
2023-09-27T11:46:50.849Z,99.90
2023-09-27T11:49:19.547Z,99.90
2023-09-27T11:51:49.104Z,99.90
2023-09-27T11:54:17.625Z,99.90
2023-09-27T11:56:48.434Z,99.90
2023-09-27T11:59:16.836Z,99.90
2023-09-27T12:01:45.113Z,99.90
2023-09-27T12:04:13.675Z,99.90
2023-09-27T12:06:42.192Z,99.90
2023-09-27T12:09:10.988Z,99.90
2023-09-27T12:11:39.322Z,99.90
2023-09-27T12:14:09.040Z,99.90
2023-09-27T12:16:37.376Z,99.90
2023-09-27T12:19:05.643Z,99.90
2023-09-27T12:21:36.227Z,99.90
2023-09-27T12:24:06.784Z,99.90
2023-09-27T12:26:36.893Z,99.90
2023-09-27T12:29:05.226Z,99.90
2023-09-27T12:31:34.812Z,99.90
2023-09-27T12:34:03.054Z,99.90
2023-09-27T12:36:31.209Z,99.90
2023-09-27T12:38:59.420Z,99.90
2023-09-27T12:41:27.676Z,99.90
2023-09-27T12:43:55.835Z,99.90
2023-09-27T12:46:23.932Z,99.90
2023-09-27T12:48:53.659Z,99.90
2023-09-27T12:51:24.978Z,99.90
2023-09-27T12:54:00.176Z,99.90
2023-09-27T12:56:28.552Z,99.90
2023-09-27T12:58:56.805Z,99.90
2023-09-27T13:01:25.084Z,99.90
2023-09-27T13:03:54.703Z,99.90
2023-09-27T13:06:22.902Z,99.90
2023-09-27T13:08:51.646Z,99.90
2023-09-27T13:11:19.904Z,99.90
2023-09-27T13:13:48.042Z,99.90
2023-09-27T13:16:16.229Z,99.90
2023-09-27T13:18:44.390Z,99.90
2023-09-27T13:21:13.853Z,99.90
2023-09-27T13:23:43.636Z,99.90
2023-09-27T13:26:12.621Z,99.90
2023-09-27T13:28:40.898Z,99.90
2023-09-27T13:31:09.247Z,99.90
2023-09-27T13:33:37.611Z,99.90
2023-09-27T13:36:06.606Z,99.90
2023-09-27T13:38:36.239Z,99.90
2023-09-27T13:41:04.656Z,99.90
2023-09-27T13:43:35.564Z,99.90
2023-09-27T13:46:03.941Z,99.90
2023-09-27T13:48:32.138Z,99.90
2023-09-27T13:51:00.344Z,99.90
2023-09-27T13:53:28.702Z,99.90
2023-09-27T13:55:58.258Z,99.90
2023-09-27T13:58:26.443Z,99.90
2023-09-27T14:00:55.719Z,99.90
2023-09-27T14:03:24.081Z,99.90
2023-09-27T14:05:52.300Z,99.90
2023-09-27T14:08:20.540Z,99.90
2023-09-27T14:10:49.759Z,99.90
2023-09-27T14:13:19.319Z,99.90
2023-09-27T14:15:47.651Z,99.90
2023-09-27T14:18:15.878Z,99.90
2023-09-27T14:20:44.258Z,99.90
2023-09-27T14:23:12.435Z,99.90
2023-09-27T14:25:41.288Z,99.90
2023-09-27T14:28:09.559Z,99.90
2023-09-27T14:30:41.728Z,99.90
2023-09-27T14:33:10.182Z,99.90
2023-09-27T14:35:52.498Z,99.90
2023-09-27T14:38:22.093Z,99.90
2023-09-27T14:40:51.083Z,99.90
2023-09-27T14:43:19.327Z,99.90
2023-09-27T14:45:50.983Z,99.90
2023-09-27T14:48:19.320Z,99.90
2023-09-27T14:50:47.491Z,99.90
2023-09-27T14:53:15.613Z,99.90
2023-09-27T14:55:43.761Z,99.90
2023-09-27T14:58:13.485Z,99.90
2023-09-27T15:00:41.698Z,99.90
2023-09-27T15:03:11.348Z,99.90
2023-09-27T15:05:40.762Z,99.90
2023-09-27T15:08:09.036Z,99.90
2023-09-27T15:10:37.285Z,99.90
2023-09-27T15:13:07.335Z,99.90
2023-09-27T15:15:36.990Z,99.90
2023-09-27T15:18:05.890Z,99.90
2023-09-27T15:20:35.431Z,99.90
2023-09-27T15:23:03.588Z,99.90
2023-09-27T15:25:31.706Z,99.90
2023-09-27T15:28:00.788Z,99.90
2023-09-27T15:30:29.711Z,99.90
2023-09-27T15:32:57.900Z,99.90
2023-09-27T15:35:26.551Z,99.90
2023-09-27T15:37:57.335Z,99.90
2023-09-27T15:40:25.666Z,99.90
2023-09-27T15:42:54.473Z,99.90
2023-09-27T15:45:24.363Z,99.90
2023-09-27T15:47:53.838Z,99.90
2023-09-27T15:50:22.051Z,99.90
2023-09-27T15:52:50.204Z,99.90
2023-09-27T15:55:19.912Z,99.90
2023-09-27T15:57:48.081Z,99.90
2023-09-27T16:00:17.362Z,99.90
2023-09-27T16:02:46.006Z,99.90
2023-09-27T16:05:14.437Z,99.90
2023-09-27T16:07:43.001Z,99.90
2023-09-27T16:10:12.702Z,99.90
2023-09-27T16:12:43.155Z,99.90
2023-09-27T16:15:11.973Z,99.90
2023-09-27T16:17:40.944Z,99.90
2023-09-27T16:20:10.577Z,99.90
2023-09-27T16:22:38.748Z,99.90
2023-09-27T16:25:08.420Z,99.90
2023-09-27T16:27:36.597Z,99.90
2023-09-27T16:30:08.477Z,99.90
2023-09-27T16:32:37.482Z,99.90
2023-09-27T16:35:06.046Z,99.90
2023-09-27T16:37:34.916Z,99.90
2023-09-27T16:40:04.212Z,99.90
2023-09-27T16:42:32.838Z,99.90
2023-09-27T16:45:00.978Z,99.90
2023-09-27T16:47:30.564Z,99.90
2023-09-27T16:50:00.091Z,99.90
2023-09-27T16:52:28.724Z,99.90
2023-09-27T16:54:57.854Z,99.90
2023-09-27T16:57:27.691Z,99.90
2023-09-27T16:59:55.789Z,99.90
2023-09-27T17:02:24.456Z,99.90
2023-09-27T17:04:54.065Z,99.90
2023-09-27T17:07:22.335Z,99.90
2023-09-27T17:09:50.462Z,99.90
2023-09-27T17:12:18.557Z,99.90
2023-09-27T17:14:46.713Z,99.90
2023-09-27T17:17:14.945Z,99.90
2023-09-27T17:19:46.084Z,99.90
2023-09-27T17:22:16.594Z,99.90
2023-09-27T17:24:44.855Z,99.90
2023-09-27T17:27:13.247Z,99.90
2023-09-27T17:29:41.530Z,99.90
2023-09-27T17:32:09.819Z,99.90
2023-09-27T17:34:38.098Z,99.90
2023-09-27T17:37:08.508Z,99.90
2023-09-27T17:39:39.277Z,99.90
2023-09-27T17:42:07.940Z,99.90
2023-09-27T17:44:36.480Z,99.90
2023-09-27T17:47:06.309Z,99.90
2023-09-27T17:49:35.102Z,99.90
2023-09-27T17:52:03.274Z,99.90
2023-09-27T17:54:31.358Z,99.90
2023-09-27T17:57:01.036Z,99.90
2023-09-27T17:59:29.528Z,99.90
2023-09-27T18:01:57.918Z,1.00
2023-09-27T18:04:29.403Z,1.00
2023-09-27T18:06:57.727Z,99.90
2023-09-27T18:09:25.881Z,99.90
2023-09-27T18:11:54.013Z,99.90
2023-09-27T18:14:25.096Z,99.90
2023-09-27T18:16:53.479Z,99.90
2023-09-27T18:19:24.541Z,99.90
2023-09-27T18:21:52.946Z,99.90
2023-09-27T18:24:21.157Z,1.00
2023-09-27T18:26:49.315Z,1.00
2023-09-27T18:29:17.721Z,1.00
2023-09-27T18:31:48.203Z,1.00
2023-09-27T18:34:16.617Z,1.00
2023-09-27T18:36:44.942Z,1.00
2023-09-27T18:39:14.888Z,1.00
2023-09-27T18:41:43.277Z,1.00
2023-09-27T18:44:12.113Z,1.00
2023-09-27T18:46:43.708Z,1.00
2023-09-27T18:49:13.378Z,1.00
2023-09-27T18:51:41.496Z,1.00
2023-09-27T18:54:11.003Z,1.00
2023-09-27T18:56:39.284Z,1.00
2023-09-27T18:59:07.512Z,1.00
2023-09-27T19:01:35.861Z,1.00
2023-09-27T19:04:04.243Z,1.00
2023-09-27T19:06:35.379Z,1.00
2023-09-27T19:09:04.871Z,1.00
2023-09-27T19:11:34.758Z,1.00
2023-09-27T19:14:05.261Z,1.00
2023-09-27T19:16:34.599Z,1.00
2023-09-27T19:19:02.726Z,1.00
2023-09-27T19:21:31.063Z,1.00
2023-09-27T19:24:00.827Z,1.00
2023-09-27T19:26:29.017Z,1.00
2023-09-27T19:28:57.241Z,1.00
2023-09-27T19:31:25.504Z,1.00
2023-09-27T19:33:54.072Z,1.00
2023-09-27T19:36:22.652Z,1.00
2023-09-27T19:38:51.449Z,1.00
2023-09-27T19:41:21.766Z,1.00
2023-09-27T19:43:49.851Z,5.30
2023-09-27T19:46:22.212Z,27.50
2023-09-27T19:48:50.400Z,54.20
2023-09-27T19:51:22.738Z,63.10
2023-09-27T19:53:51.611Z,92.20
2023-09-27T19:56:21.340Z,78.00
2023-09-27T19:58:49.564Z,85.60
2023-09-27T20:01:28.385Z,96.60
2023-09-27T20:03:57.384Z,94.30
2023-09-27T20:06:26.210Z,99.90
2023-09-27T20:08:54.441Z,99.90
2023-09-27T20:11:24.036Z,99.90
2023-09-27T20:13:52.311Z,99.90
2023-09-27T20:16:20.670Z,99.90
2023-09-27T20:18:48.967Z,99.90
2023-09-27T20:21:17.398Z,99.90
2023-09-27T20:23:45.587Z,99.90
2023-09-27T20:26:14.214Z,99.90
2023-09-27T20:28:43.744Z,99.90
2023-09-27T20:31:11.923Z,99.90
2023-09-27T20:33:40.155Z,1.00
2023-09-27T20:36:12.322Z,13.40
2023-09-27T20:38:40.562Z,99.90
2023-09-27T20:41:09.470Z,99.90
2023-09-27T20:43:37.746Z,1.00
2023-09-27T20:46:14.274Z,99.90
2023-09-27T20:48:42.509Z,99.90
2023-09-27T20:51:11.437Z,99.90
2023-09-27T20:53:39.726Z,99.90
2023-09-27T20:56:09.875Z,99.90
2023-09-27T20:58:41.830Z,99.90
2023-09-27T21:01:25.661Z,99.90
2023-09-27T21:03:54.251Z,99.90
2023-09-27T21:06:28.326Z,99.90
2023-09-27T21:08:58.495Z,99.90
2023-09-27T21:11:26.878Z,99.90
2023-09-27T21:13:56.336Z,99.90
2023-09-27T21:16:26.778Z,99.90
2023-09-27T21:18:56.074Z,99.90
2023-09-27T21:21:25.233Z,99.90
2023-09-27T21:23:54.139Z,99.90
2023-09-27T21:26:24.685Z,99.90
2023-09-27T21:28:52.929Z,99.90
2023-09-27T21:31:21.263Z,99.90
2023-09-27T21:33:51.079Z,99.90
2023-09-27T21:38:48.696Z,99.90
2023-09-27T21:41:18.964Z,99.90
2023-09-27T21:43:47.120Z,99.90
2023-09-27T21:46:20.164Z,99.90
2023-09-27T21:48:50.411Z,99.90
2023-09-27T21:53:47.490Z,99.90
2023-09-27T22:03:43.149Z,99.90
2023-09-27T22:06:14.078Z,99.90
2023-09-27T22:08:49.411Z,99.90
2023-09-27T22:11:18.184Z,99.90
2023-09-27T22:13:48.905Z,99.90
2023-09-27T22:16:17.291Z,99.90
2023-09-27T22:18:49.787Z,99.90
2023-09-27T22:21:27.952Z,99.90
2023-09-27T22:26:27.747Z,99.90
2023-09-27T22:28:57.625Z,99.90
2023-09-27T22:31:31.990Z,99.90
2023-09-27T22:34:11.677Z,99.90
2023-09-27T22:36:47.341Z,99.90
2023-09-27T22:39:17.229Z,99.90
2023-09-27T22:41:47.192Z,99.90
2023-09-27T22:44:21.417Z,99.90
2023-09-27T22:46:51.616Z,99.90
2023-09-27T22:49:20.816Z,99.90
2023-09-27T22:51:51.741Z,99.90
2023-09-27T22:59:23.668Z,99.90
2023-09-27T23:01:56.201Z,99.90
2023-09-27T23:04:25.244Z,99.90
2023-09-27T23:07:06.594Z,99.90
2023-09-27T23:09:38.375Z,99.90
2023-09-27T23:12:19.593Z,99.90
2023-09-27T23:15:13.224Z,99.90
2023-09-27T23:20:35.282Z,99.90
2023-09-27T23:23:13.333Z,99.90
2023-09-27T23:25:52.832Z,99.90
2023-09-27T23:28:31.305Z,99.90
2023-09-27T23:31:09.112Z,99.90
2023-09-27T23:33:43.091Z,99.90
2023-09-27T23:36:23.929Z,99.90
2023-09-27T23:39:04.679Z,99.90
2023-09-27T23:41:33.543Z,99.90
2023-09-27T23:44:05.729Z,99.90
2023-09-27T23:46:39.440Z,99.90
2023-09-27T23:51:37.680Z,99.90
2023-09-27T23:56:39.928Z,99.90
2023-09-27T23:59:09.644Z,99.90
